Gibsonia, Florida
Current Conditions -  °F | °C
As of 8:53 AM on Monday 24 Nov 2014 (Local Time) from KLAL Reporting Station
Broken Clouds Broken Clouds  
Wind Chill: 75°   Ceiling: 700
Heat Index: 75°   Visibility: 7mi
Dew Point: 73°   Wind: 8mph
Humidity: 94%   Direction: 180°S
Pressure: 30"   Gusts: NA
Location:  28.088°N, 81.941°W
Report Text: KLAL 241353Z 18007KT 7SM BKN007 24/23 A3000
Loading
Personal Weather Stations






























Interactive Weather Map New forecast layout! Learn more

10-Day Weather Forecast

Advertisements
Track Severe Weather on mobile